Aérodrome :
LOGIN :

S'inscrire | Disclaimer

   EN    FR    IT 

 










Légende :    VFR   VFR Marginal   IFR   IFR Intensif   IFR Très Intensif
Visi : 
Plafond : 
>= 8 km
>= 3000ft
5 à 8 km
1000 à 3000 ft
1500m à 5 km
500 à 1000 ft
800 à 1500m
200 à 500 ft
< 800m
< 200 ft
Symboles :   Orages  Brouillard  Fortes neiges  Fortes précipitations  Vent > 20 kt
SIGMETs :   Divers  Orages  Givrage  Turbulence  Onde Orograph.  Cendres Volcan.






- Altitude de l'aérodrome : 23 ft
- Code IATA : XFW


EDHI - Hamburg Finkenwerder

DERNIER METAR :
  • 151220Z AUTO 24025G37KT 9999 // SCT047/// 08/M00 Q0994

METARs EXPIRÉS :
  • 151150Z AUTO 24026G37KT 9999 // NCD 09/M00 Q0993
  • 151120Z AUTO 24024G34KT 9999 // NCD 09/00 Q0993
  • 151050Z AUTO 24028G39KT 9999 // NCD 09/01 Q0992
  • 151020Z AUTO 24023KT 9999 // FEW035/// 09/03 Q0991
  • 150950Z AUTO 23022KT 9999 // SCT034/// 09/04 Q0991

Prévision TAF périmée.



MET'MAP, la Météo Aéronautique d'un coup d'oeil ! - Copyright ORBIFLY Décembre 2007 - Disclaimer

ORBIFLY MET'MAP TEAM :

Programmation & Développement : Alexandra Zaïnal
Sur une idée originale de : Baudouin d'Aumeries
Assistance à la programmation : Marc-Olivier Méhu
Soutien technique & logistique : Manuel Goepfert

Contact : metmap@orbifly.com




SOURCES & CREDITS :

   NOAA